createdAt,value
2019-05-23T00:00:44.449Z,157.67
2019-05-23T00:03:14.677Z,248.30
2019-05-23T00:05:47.399Z,176.20
2019-05-23T00:08:17.346Z,167.40
2019-05-23T00:11:04.592Z,170.73
2019-05-23T00:13:45.955Z,191.67
2019-05-23T00:16:15.067Z,177.47
2019-05-23T00:18:45.288Z,186.40
2019-05-23T00:21:14.380Z,173.77
2019-05-23T00:23:43.176Z,174.97
2019-05-23T00:26:12.903Z,169.07
2019-05-23T00:28:42.392Z,165.87
2019-05-23T00:31:18.140Z,172.87
2019-05-23T00:33:48.835Z,161.70
2019-05-23T00:36:17.397Z,165.50
2019-05-23T00:38:45.779Z,165.20
2019-05-23T00:41:14.324Z,168.67
2019-05-23T00:43:44.439Z,163.80
2019-05-23T00:46:12.785Z,165.73
2019-05-23T00:48:41.154Z,163.47
2019-05-23T00:51:10.182Z,163.93
2019-05-23T00:53:38.811Z,163.53
2019-05-23T00:56:08.911Z,158.53
2019-05-23T00:58:37.975Z,157.20
2019-05-23T01:01:09.003Z,159.37
2019-05-23T01:03:38.551Z,154.60
2019-05-23T01:06:08.579Z,151.67
2019-05-23T01:08:37.240Z,152.90
2019-05-23T01:11:07.217Z,152.23
2019-05-23T01:13:56.425Z,161.27
2019-05-23T01:16:25.288Z,150.63
2019-05-23T01:18:54.004Z,148.47
2019-05-23T01:21:40.194Z,137.90
2019-05-23T01:24:26.315Z,136.40
2019-05-23T01:26:55.023Z,139.30
2019-05-23T01:29:37.118Z,140.13
2019-05-23T01:31:59.335Z,149.30
2019-05-23T01:34:29.268Z,140.77
2019-05-23T01:36:58.068Z,139.67
2019-05-23T01:39:26.695Z,130.37
2019-05-23T01:41:55.073Z,132.33
2019-05-23T01:44:26.107Z,136.17
2019-05-23T01:46:56.032Z,131.23
2019-05-23T01:49:24.827Z,131.77
2019-05-23T01:51:54.835Z,131.33
2019-05-23T01:54:23.714Z,135.83
2019-05-23T01:56:52.075Z,127.93
2019-05-23T01:59:22.127Z,124.13
2019-05-23T02:01:50.419Z,120.97
2019-05-23T02:04:18.795Z,120.97
2019-05-23T02:06:50.939Z,123.60
2019-05-23T02:09:19.262Z,119.47
2019-05-23T02:11:50.894Z,118.53
2019-05-23T02:14:19.563Z,117.37
2019-05-23T02:16:47.888Z,121.10
2019-05-23T02:19:16.731Z,124.23
2019-05-23T02:21:47.060Z,121.97
2019-05-23T02:24:17.125Z,119.10
2019-05-23T02:26:46.993Z,119.37
2019-05-23T02:29:15.927Z,124.80
2019-05-23T02:31:45.358Z,118.57
2019-05-23T02:34:15.416Z,111.90
2019-05-23T02:36:44.613Z,110.13
2019-05-23T02:39:34.402Z,111.20
2019-05-23T02:42:04.588Z,104.57
2019-05-23T02:44:33.124Z,110.40
2019-05-23T02:47:03.417Z,106.83
2019-05-23T02:49:33.757Z,103.83
2019-05-23T02:52:05.743Z,107.60
2019-05-23T02:54:37.377Z,106.63
2019-05-23T02:57:06.780Z,104.13
2019-05-23T02:59:48.932Z,99.03
2019-05-23T03:02:43.965Z,102.63
2019-05-23T03:05:13.994Z,99.30
2019-05-23T03:07:44.046Z,97.30
2019-05-23T03:10:13.821Z,99.10
2019-05-23T03:12:43.795Z,97.27
2019-05-23T03:15:13.045Z,96.27
2019-05-23T03:17:42.892Z,94.77
2019-05-23T03:20:16.188Z,92.50
2019-05-23T03:22:50.546Z,90.57
2019-05-23T03:25:39.221Z,91.50
2019-05-23T03:28:08.237Z,89.53
2019-05-23T03:30:38.438Z,91.77
2019-05-23T03:33:11.647Z,90.03
2019-05-23T03:38:32.687Z,85.07
2019-05-23T03:41:02.135Z,87.83
2019-05-23T03:43:33.863Z,94.40
2019-05-23T03:46:09.666Z,100.30
2019-05-23T03:48:40.437Z,97.40
2019-05-23T03:51:11.606Z,98.47
2019-05-23T03:53:41.532Z,95.80
2019-05-23T03:56:11.907Z,102.97
2019-05-23T03:58:41.065Z,102.23
2019-05-23T04:01:11.059Z,99.10
2019-05-23T04:03:40.658Z,92.63
2019-05-23T04:06:09.307Z,91.53
2019-05-23T04:08:37.784Z,110.20
2019-05-23T04:11:07.412Z,106.73
2019-05-23T04:13:36.013Z,118.43
2019-05-23T04:16:04.368Z,135.83
2019-05-23T04:18:32.781Z,144.63
2019-05-23T04:21:01.681Z,132.20
2019-05-23T04:23:30.229Z,140.40
2019-05-23T04:25:59.526Z,141.07
2019-05-23T04:28:29.537Z,150.87
2019-05-23T04:30:58.490Z,142.23
2019-05-23T04:33:26.855Z,147.60
2019-05-23T04:35:55.475Z,132.93
2019-05-23T04:38:24.606Z,136.10
2019-05-23T04:40:53.253Z,134.67
2019-05-23T04:43:21.941Z,129.10
2019-05-23T04:45:50.637Z,120.30
2019-05-23T04:48:19.821Z,116.43
2019-05-23T04:50:48.121Z,122.90
2019-05-23T04:53:16.736Z,120.93
2019-05-23T04:55:45.695Z,113.37
2019-05-23T04:58:14.823Z,114.50
2019-05-23T05:00:46.302Z,118.47
2019-05-23T05:03:18.185Z,112.97
2019-05-23T05:05:45.660Z,116.43
2019-05-23T05:08:14.089Z,106.47
2019-05-23T05:10:42.859Z,109.60
2019-05-23T05:13:11.149Z,113.53
2019-05-23T05:15:39.775Z,112.20
2019-05-23T05:18:08.668Z,99.63
2019-05-23T05:20:36.964Z,106.77
2019-05-23T05:23:05.265Z,104.37
2019-05-23T05:25:33.890Z,108.77
2019-05-23T05:28:03.915Z,99.23
2019-05-23T05:30:32.284Z,102.73
2019-05-23T05:33:01.245Z,102.27
2019-05-23T05:35:30.698Z,100.77
2019-05-23T05:37:59.003Z,99.87
2019-05-23T05:40:28.169Z,95.07
2019-05-23T05:42:56.471Z,98.53
2019-05-23T05:45:24.764Z,99.17
2019-05-23T05:47:53.211Z,92.07
2019-05-23T05:50:23.344Z,96.17
2019-05-23T05:52:52.049Z,91.50
2019-05-23T05:55:20.776Z,84.03
2019-05-23T05:57:49.391Z,87.20
2019-05-23T06:00:28.359Z,89.67
2019-05-23T06:03:04.319Z,84.23
2019-05-23T06:05:35.621Z,82.03
2019-05-23T06:08:06.036Z,84.13
2019-05-23T06:10:35.224Z,82.60
2019-05-23T06:13:03.583Z,91.20
2019-05-23T06:15:33.773Z,79.07
2019-05-23T06:18:02.182Z,80.40
2019-05-23T06:20:30.831Z,76.60
2019-05-23T06:22:59.648Z,83.40
2019-05-23T06:25:28.128Z,81.27
2019-05-23T06:27:56.891Z,77.30
2019-05-23T06:30:26.081Z,77.90
2019-05-23T06:32:54.744Z,73.77
2019-05-23T06:35:23.493Z,83.80
2019-05-23T06:37:51.900Z,72.93
2019-05-23T06:40:20.628Z,71.27
2019-05-23T06:42:50.838Z,73.67
2019-05-23T06:45:19.668Z,75.33
2019-05-23T06:47:47.973Z,74.30
2019-05-23T06:50:19.723Z,76.87
2019-05-23T06:52:48.323Z,69.53
2019-05-23T06:55:16.669Z,76.23
2019-05-23T06:57:45.404Z,77.60
2019-05-23T07:00:15.022Z,75.23
2019-05-23T07:02:43.383Z,74.77
2019-05-23T07:05:11.700Z,73.60
2019-05-23T07:07:39.986Z,72.90
2019-05-23T07:10:08.371Z,71.43
2019-05-23T07:12:36.935Z,72.40
2019-05-23T07:15:06.401Z,70.40
2019-05-23T07:17:37.815Z,69.97
2019-05-23T07:20:06.949Z,67.83
2019-05-23T07:22:35.528Z,64.93
2019-05-23T07:25:08.694Z,65.63
2019-05-23T07:27:37.727Z,68.03
2019-05-23T07:30:09.950Z,65.27
2019-05-23T07:32:40.591Z,66.17
2019-05-23T07:35:08.959Z,69.93
2019-05-23T07:37:37.263Z,64.93
2019-05-23T07:40:06.012Z,62.50
2019-05-23T07:42:34.541Z,62.97
2019-05-23T07:45:06.091Z,61.80
2019-05-23T07:47:34.675Z,62.00
2019-05-23T07:50:04.387Z,60.97
2019-05-23T07:52:32.982Z,60.00
2019-05-23T07:55:02.987Z,58.07
2019-05-23T07:57:31.579Z,57.77
2019-05-23T08:00:00.555Z,58.63
2019-05-23T08:02:36.070Z,57.03
2019-05-23T08:05:07.147Z,55.47
2019-05-23T08:07:35.928Z,55.47
2019-05-23T08:10:09.547Z,55.40
2019-05-23T08:12:38.246Z,55.60
2019-05-23T08:15:06.785Z,54.67
2019-05-23T08:17:35.143Z,54.53
2019-05-23T08:20:04.140Z,50.13
2019-05-23T08:22:32.714Z,49.97
2019-05-23T08:25:01.396Z,52.33
2019-05-23T08:27:30.327Z,51.17
2019-05-23T08:30:02.077Z,51.70
2019-05-23T08:32:29.402Z,52.57
2019-05-23T08:34:57.768Z,52.63
2019-05-23T08:37:26.457Z,49.73
2019-05-23T08:39:54.745Z,42.20
2019-05-23T08:42:23.235Z,48.13
2019-05-23T08:44:51.856Z,50.17
2019-05-23T08:47:21.905Z,49.53
2019-05-23T08:49:50.976Z,46.07
2019-05-23T08:52:19.560Z,45.97
2019-05-23T08:54:48.327Z,44.50
2019-05-23T08:57:16.778Z,45.57
2019-05-23T08:59:46.348Z,46.47
2019-05-23T09:02:17.880Z,45.43
2019-05-23T09:05:03.517Z,43.97
2019-05-23T09:07:17.468Z,39.50
2019-05-23T09:09:47.224Z,37.10
2019-05-23T09:12:15.578Z,36.33
2019-05-23T09:14:44.395Z,38.93
2019-05-23T09:17:14.809Z,37.00
2019-05-23T09:22:34.862Z,33.63
2019-05-23T09:25:04.459Z,35.77
2019-05-23T09:27:34.737Z,33.53
2019-05-23T09:30:05.755Z,30.37
2019-05-23T09:32:34.484Z,31.60
2019-05-23T09:35:19.108Z,28.03
2019-05-23T09:37:33.906Z,26.07
2019-05-23T09:40:02.192Z,25.60
2019-05-23T09:42:30.495Z,23.17
2019-05-23T09:44:58.784Z,22.07
2019-05-23T09:47:27.104Z,41.47
2019-05-23T09:49:55.395Z,38.17
2019-05-23T09:52:25.073Z,33.57
2019-05-23T09:54:53.699Z,55.00
2019-05-23T09:57:22.092Z,40.73
2019-05-23T09:59:50.535Z,38.57
2019-05-23T10:02:20.747Z,36.53
2019-05-23T10:04:49.386Z,34.13
2019-05-23T10:07:17.894Z,30.53
2019-05-23T10:09:46.823Z,30.30
2019-05-23T10:12:15.404Z,29.80
2019-05-23T10:14:43.987Z,27.60
2019-05-23T10:17:12.775Z,25.70
2019-05-23T10:19:41.378Z,27.07
2019-05-23T10:22:09.743Z,25.90
2019-05-23T10:24:38.046Z,25.83
2019-05-23T10:27:08.141Z,25.00
2019-05-23T10:29:39.443Z,29.60
2019-05-23T10:32:09.775Z,26.30
2019-05-23T10:34:38.396Z,29.53
2019-05-23T10:37:08.516Z,34.47
2019-05-23T10:39:37.201Z,44.57
2019-05-23T10:42:05.788Z,39.00
2019-05-23T10:44:34.096Z,38.57
2019-05-23T10:47:02.751Z,33.23
2019-05-23T10:49:31.358Z,30.97
2019-05-23T10:51:59.687Z,30.00
2019-05-23T10:54:28.299Z,30.60
2019-05-23T10:56:56.616Z,29.83
2019-05-23T10:59:25.292Z,35.03
2019-05-23T11:01:53.664Z,29.97
2019-05-23T11:04:22.227Z,27.83
2019-05-23T11:06:50.533Z,30.73
2019-05-23T11:09:36.112Z,30.43
2019-05-23T11:11:50.223Z,27.00
2019-05-23T11:14:18.609Z,30.00
2019-05-23T11:16:47.293Z,36.27
2019-05-23T11:19:15.871Z,47.57
2019-05-23T11:21:44.163Z,44.80
2019-05-23T11:24:12.891Z,40.17
2019-05-23T11:26:41.204Z,39.00
2019-05-23T11:29:09.506Z,39.23
2019-05-23T11:31:37.889Z,33.70
2019-05-23T11:34:06.182Z,32.47
2019-05-23T11:36:37.394Z,31.90
2019-05-23T11:39:08.400Z,31.60
2019-05-23T11:41:37.255Z,32.53
2019-05-23T11:44:05.941Z,29.20
2019-05-23T11:46:35.900Z,23.40
2019-05-23T11:49:05.444Z,26.83
2019-05-23T11:51:34.544Z,25.10
2019-05-23T11:54:09.763Z,25.33
2019-05-23T11:56:33.381Z,26.13
2019-05-23T11:59:02.071Z,23.87
2019-05-23T12:01:32.239Z,22.13
2019-05-23T12:04:04.808Z,21.50
2019-05-23T12:06:51.696Z,22.93
2019-05-23T12:09:06.696Z,19.30
2019-05-23T12:11:39.495Z,22.40
2019-05-23T12:14:05.916Z,23.80
2019-05-23T12:16:34.484Z,19.47
2019-05-23T12:19:03.819Z,17.30
2019-05-23T12:21:32.692Z,23.63
2019-05-23T12:24:01.274Z,19.07
2019-05-23T12:26:29.562Z,19.20
2019-05-23T12:28:58.234Z,20.33
2019-05-23T12:31:26.774Z,16.77
2019-05-23T12:33:55.418Z,16.87
2019-05-23T12:36:25.725Z,12.00
2019-05-23T12:38:54.013Z,14.53
2019-05-23T12:41:22.583Z,13.50
2019-05-23T12:43:51.280Z,19.97
2019-05-23T12:46:19.633Z,13.27
2019-05-23T12:48:52.462Z,14.13
2019-05-23T12:51:37.322Z,9.13
2019-05-23T12:54:06.302Z,11.63
2019-05-23T12:56:35.388Z,11.40
2019-05-23T12:59:05.825Z,8.37
2019-05-23T13:01:36.043Z,10.33
2019-05-23T13:04:04.857Z,11.20
2019-05-23T13:06:33.924Z,7.07
2019-05-23T13:09:02.830Z,7.20
2019-05-23T13:11:31.187Z,5.70
2019-05-23T13:13:59.781Z,7.77
2019-05-23T13:16:28.462Z,9.13
2019-05-23T13:18:56.846Z,6.93
2019-05-23T13:21:25.309Z,9.70
2019-05-23T13:23:53.584Z,7.50
2019-05-23T13:26:21.912Z,7.50
2019-05-23T13:28:50.266Z,7.33
2019-05-23T13:31:18.575Z,7.00
2019-05-23T13:33:47.631Z,13.53
2019-05-23T13:36:16.175Z,5.67
2019-05-23T13:38:44.527Z,7.07
2019-05-23T13:41:13.187Z,9.63
2019-05-23T13:43:42.497Z,8.23
2019-05-23T13:46:10.848Z,8.40
2019-05-23T13:48:39.218Z,8.00
2019-05-23T13:51:07.943Z,4.67
2019-05-23T13:53:36.475Z,8.77
2019-05-23T13:56:05.200Z,4.77
2019-05-23T13:58:33.863Z,5.73
2019-05-23T14:01:02.655Z,4.80
2019-05-23T14:03:31.340Z,5.43
2019-05-23T14:06:02.448Z,7.57
2019-05-23T14:08:30.810Z,5.23
2019-05-23T14:10:59.115Z,6.17
2019-05-23T14:13:27.834Z,10.23
2019-05-23T14:15:56.507Z,9.23
2019-05-23T14:18:26.455Z,11.60
2019-05-23T14:20:55.315Z,12.73
2019-05-23T14:23:25.564Z,6.63
2019-05-23T14:25:54.161Z,5.17
2019-05-23T14:28:22.488Z,9.73
2019-05-23T14:30:58.821Z,5.33
2019-05-23T14:33:40.994Z,13.17
2019-05-23T14:36:31.811Z,11.53
2019-05-23T14:38:59.176Z,5.80
2019-05-23T14:41:44.179Z,3.97
2019-05-23T14:43:59.303Z,4.20
2019-05-23T14:46:29.243Z,6.27
2019-05-23T14:49:08.161Z,7.77
2019-05-23T14:51:47.751Z,3.70
2019-05-23T14:54:17.708Z,5.40
2019-05-23T14:56:46.358Z,6.23
2019-05-23T14:59:15.251Z,8.43
2019-05-23T15:01:44.408Z,6.00
2019-05-23T15:04:13.025Z,9.00
2019-05-23T15:06:41.912Z,8.93
2019-05-23T15:09:10.268Z,7.40
2019-05-23T15:11:39.052Z,6.87
2019-05-23T15:14:07.400Z,6.80
2019-05-23T15:16:35.812Z,8.57
2019-05-23T15:19:04.443Z,6.37
2019-05-23T15:21:33.216Z,5.17
2019-05-23T15:24:01.908Z,5.27
2019-05-23T15:26:30.474Z,5.90
2019-05-23T15:28:59.078Z,5.20
2019-05-23T15:31:27.391Z,4.90
2019-05-23T15:33:55.678Z,5.33
2019-05-23T15:36:24.455Z,3.97
2019-05-23T15:39:09.119Z,4.33
2019-05-23T15:41:25.176Z,2.60
2019-05-23T15:43:53.739Z,3.27
2019-05-23T15:46:22.025Z,3.93
2019-05-23T15:48:50.586Z,2.73
2019-05-23T15:51:23.806Z,7.33
2019-05-23T15:53:53.732Z,8.53
2019-05-23T15:56:28.473Z,7.10
2019-05-23T15:59:00.500Z,8.57
2019-05-23T16:01:33.486Z,6.03
2019-05-23T16:04:04.261Z,4.17
2019-05-23T16:06:34.605Z,3.50
2019-05-23T16:09:58.788Z,5.43
2019-05-23T16:12:27.276Z,6.53
2019-05-23T16:14:55.758Z,4.90
2019-05-23T16:17:24.495Z,2.53
2019-05-23T16:19:52.931Z,4.83
2019-05-23T16:22:21.561Z,15.47
2019-05-23T16:24:49.852Z,12.23
2019-05-23T16:27:18.219Z,11.87
2019-05-23T16:29:46.534Z,11.57
2019-05-23T16:32:14.951Z,6.77
2019-05-23T16:34:43.246Z,6.77
2019-05-23T16:37:11.901Z,5.47
2019-05-23T16:39:47.508Z,4.63
2019-05-23T16:42:12.072Z,9.97
2019-05-23T16:44:41.018Z,6.83
2019-05-23T16:47:09.342Z,10.57
2019-05-23T16:49:38.024Z,14.37
2019-05-23T16:52:06.337Z,11.27
2019-05-23T16:54:36.296Z,13.33
2019-05-23T16:57:22.635Z,18.33
2019-05-23T17:00:10.678Z,15.77
2019-05-23T17:02:40.665Z,13.13
2019-05-23T17:05:19.776Z,8.80
2019-05-23T17:07:52.687Z,9.33
2019-05-23T17:10:22.619Z,6.00
2019-05-23T17:12:52.545Z,5.53
2019-05-23T17:15:34.479Z,12.77
2019-05-23T17:18:04.840Z,7.13
2019-05-23T17:20:40.913Z,6.07
2019-05-23T17:23:13.806Z,9.27
2019-05-23T17:25:43.752Z,4.97
2019-05-23T17:28:16.768Z,5.07
2019-05-23T17:30:49.695Z,6.13
2019-05-23T17:33:19.294Z,5.63
2019-05-23T17:35:47.880Z,5.00
2019-05-23T17:38:16.475Z,6.17
2019-05-23T17:40:45.287Z,4.60
2019-05-23T17:43:13.705Z,5.07
2019-05-23T17:45:42.151Z,5.20
2019-05-23T17:48:10.780Z,5.97
2019-05-23T17:50:39.193Z,6.27
2019-05-23T17:53:07.882Z,5.60
2019-05-23T17:55:36.528Z,5.67
2019-05-23T17:58:05.115Z,7.97
2019-05-23T18:00:46.994Z,7.67
2019-05-23T18:03:15.289Z,8.27
2019-05-23T18:05:44.180Z,6.20
2019-05-23T18:08:12.936Z,26.77
2019-05-23T18:10:45.116Z,24.40
2019-05-23T18:13:12.157Z,23.53
2019-05-23T18:15:40.769Z,14.13
2019-05-23T18:18:09.768Z,15.13
2019-05-23T18:20:39.777Z,11.57
2019-05-23T18:23:09.003Z,9.23
2019-05-23T18:25:37.322Z,9.27
2019-05-23T18:28:06.858Z,9.17
2019-05-23T18:30:53.560Z,8.80
2019-05-23T18:33:25.618Z,10.70
2019-05-23T18:35:54.964Z,9.27
2019-05-23T18:38:24.133Z,7.70
2019-05-23T18:41:03.149Z,9.77
2019-05-23T18:43:24.638Z,12.70
2019-05-23T18:45:54.638Z,6.27
2019-05-23T18:48:23.275Z,8.67
2019-05-23T18:50:51.595Z,13.37
2019-05-23T18:53:20.147Z,12.70
2019-05-23T18:55:48.716Z,12.17
2019-05-23T18:58:19.592Z,10.93
2019-05-23T19:00:58.282Z,9.67
2019-05-23T19:03:27.243Z,8.33
2019-05-23T19:05:55.838Z,10.27
2019-05-23T19:08:24.232Z,7.97
2019-05-23T19:10:52.545Z,6.70
2019-05-23T19:13:21.211Z,6.87
2019-05-23T19:15:50.109Z,7.20
2019-05-23T19:18:18.752Z,37.93
2019-05-23T19:20:47.413Z,20.30
2019-05-23T19:23:16.576Z,16.40
2019-05-23T19:25:46.262Z,11.67
2019-05-23T19:28:14.617Z,10.37
2019-05-23T19:30:43.159Z,8.87
2019-05-23T19:33:12.136Z,10.77
2019-05-23T19:35:40.803Z,8.17
2019-05-23T19:38:09.380Z,8.50
2019-05-23T19:40:37.860Z,7.13
2019-05-23T19:43:07.084Z,7.87
2019-05-23T19:45:36.268Z,10.43
2019-05-23T19:48:04.979Z,22.03
2019-05-23T19:50:34.363Z,24.03
2019-05-23T19:53:02.689Z,23.10
2019-05-23T19:55:31.964Z,21.53
2019-05-23T19:58:00.933Z,23.57
2019-05-23T20:00:30.856Z,19.50
2019-05-23T20:03:03.246Z,15.83
2019-05-23T20:05:40.308Z,12.27
2019-05-23T20:08:08.786Z,13.10
2019-05-23T20:14:17.434Z,21.50
2019-05-23T20:16:45.723Z,22.37
2019-05-23T20:19:14.487Z,28.87
2019-05-23T20:21:43.115Z,24.03
2019-05-23T20:24:11.585Z,20.13
2019-05-23T20:26:39.940Z,20.03
2019-05-23T20:29:10.399Z,15.30
2019-05-23T20:31:38.464Z,14.67
2019-05-23T20:34:08.148Z,14.30
2019-05-23T20:36:36.528Z,14.67
2019-05-23T20:39:06.895Z,13.83
2019-05-23T20:41:36.287Z,13.50
2019-05-23T20:44:04.751Z,14.10
2019-05-23T20:46:33.517Z,26.30
2019-05-23T20:49:01.842Z,27.17
2019-05-23T20:51:31.612Z,21.67
2019-05-23T20:54:00.288Z,68.30
2019-05-23T20:56:29.434Z,38.97
2019-05-23T20:58:58.095Z,29.87
2019-05-23T21:01:31.072Z,25.77
2019-05-23T21:04:00.297Z,21.43
2019-05-23T21:06:28.667Z,20.77
2019-05-23T21:08:57.328Z,22.07
2019-05-23T21:11:26.070Z,19.83
2019-05-23T21:13:56.484Z,25.23
2019-05-23T21:16:26.473Z,19.30
2019-05-23T21:18:58.034Z,19.63
2019-05-23T21:21:28.702Z,22.10
2019-05-23T21:24:01.388Z,19.50
2019-05-23T21:26:29.708Z,18.67
2019-05-23T21:28:58.004Z,20.90
2019-05-23T21:31:27.040Z,16.80
2019-05-23T21:33:55.697Z,29.43
2019-05-23T21:36:24.552Z,31.37
2019-05-23T21:38:53.147Z,27.50
2019-05-23T21:41:21.503Z,26.63
2019-05-23T21:43:51.582Z,24.70
2019-05-23T21:46:20.475Z,31.30
2019-05-23T21:48:49.312Z,104.80
2019-05-23T21:51:17.895Z,119.90
2019-05-23T21:53:46.548Z,136.40
2019-05-23T21:56:15.051Z,97.63
2019-05-23T21:58:43.646Z,63.40
2019-05-23T22:01:14.597Z,54.27
2019-05-23T22:03:53.716Z,50.47
2019-05-23T22:06:24.962Z,44.90
2019-05-23T22:08:53.944Z,44.53
2019-05-23T22:11:25.837Z,42.23
2019-05-23T22:13:55.937Z,48.23
2019-05-23T22:16:24.706Z,45.13
2019-05-23T22:18:54.113Z,96.10
2019-05-23T22:21:22.913Z,98.80
2019-05-23T22:23:51.993Z,89.73
2019-05-23T22:26:20.464Z,73.93
2019-05-23T22:28:48.782Z,56.60
2019-05-23T22:31:20.153Z,60.27
2019-05-23T22:33:52.559Z,54.97
2019-05-23T22:36:22.404Z,51.17
2019-05-23T22:38:51.105Z,52.77
2019-05-23T22:41:19.577Z,46.43
2019-05-23T22:43:47.976Z,47.40
2019-05-23T22:46:17.529Z,45.27
2019-05-23T22:48:46.341Z,44.10
2019-05-23T22:51:14.832Z,43.70
2019-05-23T22:53:43.540Z,43.37
2019-05-23T22:56:14.065Z,44.40
2019-05-23T22:58:42.803Z,48.43
2019-05-23T23:01:11.562Z,53.83
2019-05-23T23:03:40.274Z,63.10
2019-05-23T23:06:09.048Z,58.73
2019-05-23T23:08:37.515Z,66.27
2019-05-23T23:11:06.156Z,61.47
2019-05-23T23:13:38.676Z,64.93
2019-05-23T23:16:04.758Z,68.33
2019-05-23T23:18:33.044Z,73.77
2019-05-23T23:21:01.355Z,88.93
2019-05-23T23:23:29.679Z,114.67
2019-05-23T23:25:58.275Z,113.17
2019-05-23T23:28:26.726Z,111.40
2019-05-23T23:30:55.920Z,138.97
2019-05-23T23:33:24.696Z,125.40
2019-05-23T23:35:53.183Z,117.67
2019-05-23T23:38:21.868Z,107.33
2019-05-23T23:40:50.719Z,96.53
2019-05-23T23:43:22.123Z,91.17
2019-05-23T23:46:09.245Z,100.50
2019-05-23T23:48:56.179Z,99.90
2019-05-23T23:51:43.092Z,93.37
2019-05-23T23:54:29.284Z,90.63
2019-05-23T23:57:15.987Z,87.40
2019-05-23T23:59:43.670Z,92.33
